sensor_id;sensor_type;location;lat;lon;timestamp;P1;durP1;ratioP1;P2;durP2;ratioP2
2966;SDS011;1493;51.496;7.210;2023-12-07T00:01:48;51.03;;;28.30;;
2966;SDS011;1493;51.496;7.210;2023-12-07T00:04:15;48.73;;;26.00;;
2966;SDS011;1493;51.496;7.210;2023-12-07T00:06:43;56.63;;;28.60;;
2966;SDS011;1493;51.496;7.210;2023-12-07T00:09:10;45.30;;;26.87;;
2966;SDS011;1493;51.496;7.210;2023-12-07T00:11:37;46.47;;;26.77;;
2966;SDS011;1493;51.496;7.210;2023-12-07T00:14:07;50.80;;;27.10;;
2966;SDS011;1493;51.496;7.210;2023-12-07T00:16:33;53.50;;;26.80;;
2966;SDS011;1493;51.496;7.210;2023-12-07T00:19:00;50.70;;;27.90;;
2966;SDS011;1493;51.496;7.210;2023-12-07T00:21:27;43.60;;;27.10;;
2966;SDS011;1493;51.496;7.210;2023-12-07T00:23:55;62.43;;;29.67;;
2966;SDS011;1493;51.496;7.210;2023-12-07T00:26:22;56.83;;;29.57;;
2966;SDS011;1493;51.496;7.210;2023-12-07T00:28:49;44.50;;;28.20;;
2966;SDS011;1493;51.496;7.210;2023-12-07T00:31:15;51.67;;;27.47;;
2966;SDS011;1493;51.496;7.210;2023-12-07T00:33:46;52.30;;;28.70;;
2966;SDS011;1493;51.496;7.210;2023-12-07T00:36:13;50.03;;;27.00;;
2966;SDS011;1493;51.496;7.210;2023-12-07T00:38:40;51.30;;;29.00;;
2966;SDS011;1493;51.496;7.210;2023-12-07T00:41:08;66.93;;;34.07;;
2966;SDS011;1493;51.496;7.210;2023-12-07T00:43:35;51.50;;;27.63;;
2966;SDS011;1493;51.496;7.210;2023-12-07T00:46:06;48.23;;;28.80;;
2966;SDS011;1493;51.496;7.210;2023-12-07T00:48:33;48.57;;;27.70;;
2966;SDS011;1493;51.496;7.210;2023-12-07T00:51:00;53.63;;;27.83;;
2966;SDS011;1493;51.496;7.210;2023-12-07T00:53:26;59.07;;;29.40;;
2966;SDS011;1493;51.496;7.210;2023-12-07T00:55:53;59.27;;;31.83;;
2966;SDS011;1493;51.496;7.210;2023-12-07T00:58:21;50.17;;;28.50;;
2966;SDS011;1493;51.496;7.210;2023-12-07T01:00:48;44.20;;;27.33;;
2966;SDS011;1493;51.496;7.210;2023-12-07T01:03:15;47.90;;;30.90;;
2966;SDS011;1493;51.496;7.210;2023-12-07T01:05:42;44.67;;;26.87;;
2966;SDS011;1493;51.496;7.210;2023-12-07T01:08:09;46.03;;;27.40;;
2966;SDS011;1493;51.496;7.210;2023-12-07T01:10:36;45.33;;;26.40;;
2966;SDS011;1493;51.496;7.210;2023-12-07T01:13:03;46.60;;;26.60;;
2966;SDS011;1493;51.496;7.210;2023-12-07T01:15:32;64.23;;;33.87;;
2966;SDS011;1493;51.496;7.210;2023-12-07T01:17:58;51.77;;;30.23;;
2966;SDS011;1493;51.496;7.210;2023-12-07T01:20:25;50.10;;;27.07;;
2966;SDS011;1493;51.496;7.210;2023-12-07T01:22:52;48.77;;;28.27;;
2966;SDS011;1493;51.496;7.210;2023-12-07T01:25:19;44.70;;;26.40;;
2966;SDS011;1493;51.496;7.210;2023-12-07T01:27:46;45.90;;;26.60;;
2966;SDS011;1493;51.496;7.210;2023-12-07T01:30:13;45.10;;;27.40;;
2966;SDS011;1493;51.496;7.210;2023-12-07T01:32:41;47.40;;;26.77;;
2966;SDS011;1493;51.496;7.210;2023-12-07T01:35:08;43.70;;;25.27;;
2966;SDS011;1493;51.496;7.210;2023-12-07T01:37:35;45.13;;;24.50;;
2966;SDS011;1493;51.496;7.210;2023-12-07T01:40:03;43.47;;;25.33;;
2966;SDS011;1493;51.496;7.210;2023-12-07T01:42:35;53.27;;;28.77;;
2966;SDS011;1493;51.496;7.210;2023-12-07T01:45:02;54.80;;;28.90;;
2966;SDS011;1493;51.496;7.210;2023-12-07T01:47:29;52.60;;;28.77;;
2966;SDS011;1493;51.496;7.210;2023-12-07T01:49:57;55.93;;;28.13;;
2966;SDS011;1493;51.496;7.210;2023-12-07T01:52:26;49.63;;;27.40;;
2966;SDS011;1493;51.496;7.210;2023-12-07T01:54:55;47.93;;;27.53;;
2966;SDS011;1493;51.496;7.210;2023-12-07T01:57:23;58.10;;;30.43;;
2966;SDS011;1493;51.496;7.210;2023-12-07T01:59:50;56.83;;;30.60;;
2966;SDS011;1493;51.496;7.210;2023-12-07T02:02:17;62.63;;;31.03;;
2966;SDS011;1493;51.496;7.210;2023-12-07T02:04:44;52.30;;;30.03;;
2966;SDS011;1493;51.496;7.210;2023-12-07T02:07:12;50.27;;;28.30;;
2966;SDS011;1493;51.496;7.210;2023-12-07T02:09:39;56.40;;;29.70;;
2966;SDS011;1493;51.496;7.210;2023-12-07T02:12:07;55.37;;;29.23;;
2966;SDS011;1493;51.496;7.210;2023-12-07T02:14:34;50.10;;;25.93;;
2966;SDS011;1493;51.496;7.210;2023-12-07T02:17:03;46.53;;;27.40;;
2966;SDS011;1493;51.496;7.210;2023-12-07T02:19:46;53.10;;;28.43;;
2966;SDS011;1493;51.496;7.210;2023-12-07T02:22:21;69.87;;;31.27;;
2966;SDS011;1493;51.496;7.210;2023-12-07T02:25:00;54.20;;;27.20;;
2966;SDS011;1493;51.496;7.210;2023-12-07T02:27:37;45.70;;;25.07;;
2966;SDS011;1493;51.496;7.210;2023-12-07T02:30:05;41.60;;;23.80;;
2966;SDS011;1493;51.496;7.210;2023-12-07T02:32:32;49.50;;;26.03;;
2966;SDS011;1493;51.496;7.210;2023-12-07T02:35:00;45.63;;;24.73;;
2966;SDS011;1493;51.496;7.210;2023-12-07T02:37:27;48.27;;;25.33;;
2966;SDS011;1493;51.496;7.210;2023-12-07T02:39:58;59.47;;;28.13;;
2966;SDS011;1493;51.496;7.210;2023-12-07T02:42:28;53.37;;;28.17;;
2966;SDS011;1493;51.496;7.210;2023-12-07T02:44:58;53.13;;;26.53;;
2966;SDS011;1493;51.496;7.210;2023-12-07T02:47:25;40.80;;;24.03;;
2966;SDS011;1493;51.496;7.210;2023-12-07T02:49:57;44.13;;;23.30;;
2966;SDS011;1493;51.496;7.210;2023-12-07T02:52:24;46.53;;;26.30;;
2966;SDS011;1493;51.496;7.210;2023-12-07T02:54:51;48.47;;;26.70;;
2966;SDS011;1493;51.496;7.210;2023-12-07T02:57:18;72.60;;;30.20;;
2966;SDS011;1493;51.496;7.210;2023-12-07T02:59:44;55.33;;;26.30;;
2966;SDS011;1493;51.496;7.210;2023-12-07T03:02:12;52.93;;;26.10;;
2966;SDS011;1493;51.496;7.210;2023-12-07T03:04:39;50.10;;;26.83;;
2966;SDS011;1493;51.496;7.210;2023-12-07T03:07:06;53.27;;;25.40;;
2966;SDS011;1493;51.496;7.210;2023-12-07T03:09:36;40.30;;;21.87;;
2966;SDS011;1493;51.496;7.210;2023-12-07T03:12:02;46.70;;;24.47;;
2966;SDS011;1493;51.496;7.210;2023-12-07T03:14:30;40.00;;;24.00;;
2966;SDS011;1493;51.496;7.210;2023-12-07T03:16:56;41.60;;;22.00;;
2966;SDS011;1493;51.496;7.210;2023-12-07T03:19:25;41.97;;;23.10;;
2966;SDS011;1493;51.496;7.210;2023-12-07T03:21:51;42.87;;;23.60;;
2966;SDS011;1493;51.496;7.210;2023-12-07T03:24:18;47.17;;;24.47;;
2966;SDS011;1493;51.496;7.210;2023-12-07T03:26:46;50.33;;;26.30;;
2966;SDS011;1493;51.496;7.210;2023-12-07T03:29:13;41.07;;;22.10;;
2966;SDS011;1493;51.496;7.210;2023-12-07T03:31:40;50.47;;;24.87;;
2966;SDS011;1493;51.496;7.210;2023-12-07T03:34:07;45.37;;;23.33;;
2966;SDS011;1493;51.496;7.210;2023-12-07T03:36:41;42.20;;;23.10;;
2966;SDS011;1493;51.496;7.210;2023-12-07T03:39:08;48.87;;;26.17;;
2966;SDS011;1493;51.496;7.210;2023-12-07T03:41:35;42.90;;;24.53;;
2966;SDS011;1493;51.496;7.210;2023-12-07T03:44:02;42.90;;;22.40;;
2966;SDS011;1493;51.496;7.210;2023-12-07T03:46:29;38.37;;;20.90;;
2966;SDS011;1493;51.496;7.210;2023-12-07T03:48:56;64.60;;;27.30;;
2966;SDS011;1493;51.496;7.210;2023-12-07T03:51:24;54.53;;;25.27;;
2966;SDS011;1493;51.496;7.210;2023-12-07T03:53:53;41.23;;;20.93;;
2966;SDS011;1493;51.496;7.210;2023-12-07T03:56:23;40.60;;;23.57;;
2966;SDS011;1493;51.496;7.210;2023-12-07T03:58:50;43.43;;;23.90;;
2966;SDS011;1493;51.496;7.210;2023-12-07T04:01:17;49.90;;;24.40;;
2966;SDS011;1493;51.496;7.210;2023-12-07T04:03:47;38.57;;;22.83;;
2966;SDS011;1493;51.496;7.210;2023-12-07T04:06:14;48.37;;;23.63;;
2966;SDS011;1493;51.496;7.210;2023-12-07T04:08:41;41.47;;;22.50;;
2966;SDS011;1493;51.496;7.210;2023-12-07T04:11:09;39.90;;;22.50;;
2966;SDS011;1493;51.496;7.210;2023-12-07T04:13:36;42.87;;;24.20;;
2966;SDS011;1493;51.496;7.210;2023-12-07T04:16:03;43.10;;;23.33;;
2966;SDS011;1493;51.496;7.210;2023-12-07T04:18:31;50.50;;;25.40;;
2966;SDS011;1493;51.496;7.210;2023-12-07T04:20:58;44.43;;;21.77;;
2966;SDS011;1493;51.496;7.210;2023-12-07T04:23:24;43.10;;;20.00;;
2966;SDS011;1493;51.496;7.210;2023-12-07T04:25:51;48.10;;;22.43;;
2966;SDS011;1493;51.496;7.210;2023-12-07T04:28:19;47.47;;;23.53;;
2966;SDS011;1493;51.496;7.210;2023-12-07T04:30:55;43.43;;;23.83;;
2966;SDS011;1493;51.496;7.210;2023-12-07T04:33:22;43.57;;;21.47;;
2966;SDS011;1493;51.496;7.210;2023-12-07T04:35:48;40.93;;;22.40;;
2966;SDS011;1493;51.496;7.210;2023-12-07T04:38:15;39.50;;;21.70;;
2966;SDS011;1493;51.496;7.210;2023-12-07T04:40:42;38.53;;;20.00;;
2966;SDS011;1493;51.496;7.210;2023-12-07T04:43:09;62.67;;;22.83;;
2966;SDS011;1493;51.496;7.210;2023-12-07T04:45:37;42.57;;;20.73;;
2966;SDS011;1493;51.496;7.210;2023-12-07T04:48:07;41.57;;;21.90;;
2966;SDS011;1493;51.496;7.210;2023-12-07T04:50:34;37.87;;;20.43;;
2966;SDS011;1493;51.496;7.210;2023-12-07T04:53:01;37.60;;;21.27;;
2966;SDS011;1493;51.496;7.210;2023-12-07T04:55:27;36.77;;;21.10;;
2966;SDS011;1493;51.496;7.210;2023-12-07T04:57:54;37.33;;;21.10;;
2966;SDS011;1493;51.496;7.210;2023-12-07T05:00:23;42.27;;;20.90;;
2966;SDS011;1493;51.496;7.210;2023-12-07T05:02:53;36.83;;;18.80;;
2966;SDS011;1493;51.496;7.210;2023-12-07T05:05:20;32.53;;;19.23;;
2966;SDS011;1493;51.496;7.210;2023-12-07T05:07:47;36.80;;;18.60;;
2966;SDS011;1493;51.496;7.210;2023-12-07T05:10:16;33.23;;;19.73;;
2966;SDS011;1493;51.496;7.210;2023-12-07T05:12:42;28.57;;;17.67;;
2966;SDS011;1493;51.496;7.210;2023-12-07T05:15:09;33.07;;;17.97;;
2966;SDS011;1493;51.496;7.210;2023-12-07T05:17:36;35.63;;;17.50;;
2966;SDS011;1493;51.496;7.210;2023-12-07T05:20:05;34.20;;;18.13;;
2966;SDS011;1493;51.496;7.210;2023-12-07T05:22:33;32.67;;;17.63;;
2966;SDS011;1493;51.496;7.210;2023-12-07T05:25:05;30.43;;;15.40;;
2966;SDS011;1493;51.496;7.210;2023-12-07T05:27:33;28.97;;;17.20;;
2966;SDS011;1493;51.496;7.210;2023-12-07T05:30:00;31.03;;;17.23;;
2966;SDS011;1493;51.496;7.210;2023-12-07T05:32:26;31.97;;;19.03;;
2966;SDS011;1493;51.496;7.210;2023-12-07T05:34:53;28.80;;;16.80;;
2966;SDS011;1493;51.496;7.210;2023-12-07T05:37:21;26.20;;;16.10;;
2966;SDS011;1493;51.496;7.210;2023-12-07T05:39:48;28.53;;;15.17;;
2966;SDS011;1493;51.496;7.210;2023-12-07T05:42:17;24.80;;;14.23;;
2966;SDS011;1493;51.496;7.210;2023-12-07T05:44:48;27.50;;;16.60;;
2966;SDS011;1493;51.496;7.210;2023-12-07T05:47:14;33.63;;;17.43;;
2966;SDS011;1493;51.496;7.210;2023-12-07T05:49:48;33.67;;;17.70;;
2966;SDS011;1493;51.496;7.210;2023-12-07T05:52:15;26.80;;;15.33;;
2966;SDS011;1493;51.496;7.210;2023-12-07T05:54:43;28.93;;;16.40;;
2966;SDS011;1493;51.496;7.210;2023-12-07T05:57:11;29.27;;;16.37;;
2966;SDS011;1493;51.496;7.210;2023-12-07T05:59:38;27.00;;;14.73;;
2966;SDS011;1493;51.496;7.210;2023-12-07T06:02:06;24.50;;;16.03;;
2966;SDS011;1493;51.496;7.210;2023-12-07T06:04:38;23.50;;;15.27;;
2966;SDS011;1493;51.496;7.210;2023-12-07T06:07:05;28.23;;;16.20;;
2966;SDS011;1493;51.496;7.210;2023-12-07T06:09:32;25.63;;;15.97;;
2966;SDS011;1493;51.496;7.210;2023-12-07T06:12:00;25.73;;;17.13;;
2966;SDS011;1493;51.496;7.210;2023-12-07T06:14:27;23.10;;;14.53;;
2966;SDS011;1493;51.496;7.210;2023-12-07T06:16:54;29.03;;;15.23;;
2966;SDS011;1493;51.496;7.210;2023-12-07T06:19:21;24.13;;;14.53;;
2966;SDS011;1493;51.496;7.210;2023-12-07T06:21:48;28.00;;;16.33;;
2966;SDS011;1493;51.496;7.210;2023-12-07T06:24:16;24.93;;;15.93;;
2966;SDS011;1493;51.496;7.210;2023-12-07T06:26:43;26.13;;;15.70;;
2966;SDS011;1493;51.496;7.210;2023-12-07T06:29:11;24.63;;;15.57;;
2966;SDS011;1493;51.496;7.210;2023-12-07T06:31:42;26.07;;;16.20;;
2966;SDS011;1493;51.496;7.210;2023-12-07T06:34:09;28.90;;;18.17;;
2966;SDS011;1493;51.496;7.210;2023-12-07T06:36:36;30.23;;;16.00;;
2966;SDS011;1493;51.496;7.210;2023-12-07T06:39:03;26.20;;;16.23;;
2966;SDS011;1493;51.496;7.210;2023-12-07T06:41:30;26.83;;;17.53;;
2966;SDS011;1493;51.496;7.210;2023-12-07T06:43:56;24.83;;;16.20;;
2966;SDS011;1493;51.496;7.210;2023-12-07T06:46:24;26.10;;;16.23;;
2966;SDS011;1493;51.496;7.210;2023-12-07T06:48:51;28.67;;;16.27;;
2966;SDS011;1493;51.496;7.210;2023-12-07T06:51:18;27.47;;;15.83;;
2966;SDS011;1493;51.496;7.210;2023-12-07T06:53:45;24.93;;;15.27;;
2966;SDS011;1493;51.496;7.210;2023-12-07T06:56:12;24.83;;;14.90;;
2966;SDS011;1493;51.496;7.210;2023-12-07T06:58:39;26.63;;;16.13;;
2966;SDS011;1493;51.496;7.210;2023-12-07T07:01:06;29.73;;;16.50;;
2966;SDS011;1493;51.496;7.210;2023-12-07T07:03:35;28.90;;;15.70;;
2966;SDS011;1493;51.496;7.210;2023-12-07T07:06:01;30.43;;;18.80;;
2966;SDS011;1493;51.496;7.210;2023-12-07T07:08:28;26.43;;;16.50;;
2966;SDS011;1493;51.496;7.210;2023-12-07T07:10:55;29.87;;;16.23;;
2966;SDS011;1493;51.496;7.210;2023-12-07T07:13:22;30.70;;;16.27;;
2966;SDS011;1493;51.496;7.210;2023-12-07T07:15:49;26.03;;;16.33;;
2966;SDS011;1493;51.496;7.210;2023-12-07T07:18:16;27.23;;;16.20;;
2966;SDS011;1493;51.496;7.210;2023-12-07T07:20:44;25.57;;;15.50;;
2966;SDS011;1493;51.496;7.210;2023-12-07T07:23:12;27.63;;;15.60;;
2966;SDS011;1493;51.496;7.210;2023-12-07T07:25:38;27.73;;;15.90;;
2966;SDS011;1493;51.496;7.210;2023-12-07T07:28:05;25.80;;;15.13;;
2966;SDS011;1493;51.496;7.210;2023-12-07T07:30:32;25.53;;;15.03;;
2966;SDS011;1493;51.496;7.210;2023-12-07T07:32:59;26.40;;;14.73;;
2966;SDS011;1493;51.496;7.210;2023-12-07T07:35:27;26.77;;;16.10;;
2966;SDS011;1493;51.496;7.210;2023-12-07T07:37:55;26.00;;;15.57;;
2966;SDS011;1493;51.496;7.210;2023-12-07T07:40:22;27.30;;;15.70;;
2966;SDS011;1493;51.496;7.210;2023-12-07T07:42:49;25.43;;;16.10;;
2966;SDS011;1493;51.496;7.210;2023-12-07T07:45:16;32.90;;;17.83;;
2966;SDS011;1493;51.496;7.210;2023-12-07T07:47:43;29.00;;;16.77;;
2966;SDS011;1493;51.496;7.210;2023-12-07T07:50:10;27.07;;;16.30;;
2966;SDS011;1493;51.496;7.210;2023-12-07T07:52:36;31.90;;;16.83;;
2966;SDS011;1493;51.496;7.210;2023-12-07T07:55:07;25.90;;;15.03;;
2966;SDS011;1493;51.496;7.210;2023-12-07T07:57:34;26.90;;;15.30;;
2966;SDS011;1493;51.496;7.210;2023-12-07T08:00:01;28.67;;;16.30;;
2966;SDS011;1493;51.496;7.210;2023-12-07T08:02:30;28.57;;;16.57;;
2966;SDS011;1493;51.496;7.210;2023-12-07T08:04:57;24.67;;;14.40;;
2966;SDS011;1493;51.496;7.210;2023-12-07T08:07:24;26.83;;;16.57;;
2966;SDS011;1493;51.496;7.210;2023-12-07T08:09:50;33.60;;;16.17;;
2966;SDS011;1493;51.496;7.210;2023-12-07T08:12:19;29.00;;;15.70;;
2966;SDS011;1493;51.496;7.210;2023-12-07T08:14:47;28.40;;;16.13;;
2966;SDS011;1493;51.496;7.210;2023-12-07T08:17:14;24.60;;;13.97;;
2966;SDS011;1493;51.496;7.210;2023-12-07T08:19:41;29.70;;;16.33;;
2966;SDS011;1493;51.496;7.210;2023-12-07T08:22:08;29.80;;;17.73;;
2966;SDS011;1493;51.496;7.210;2023-12-07T08:24:35;25.43;;;15.07;;
2966;SDS011;1493;51.496;7.210;2023-12-07T08:27:02;30.93;;;15.60;;
2966;SDS011;1493;51.496;7.210;2023-12-07T08:29:31;26.80;;;17.20;;
2966;SDS011;1493;51.496;7.210;2023-12-07T08:31:58;31.00;;;16.10;;
2966;SDS011;1493;51.496;7.210;2023-12-07T08:34:25;31.43;;;15.00;;
2966;SDS011;1493;51.496;7.210;2023-12-07T08:36:51;27.73;;;17.03;;
2966;SDS011;1493;51.496;7.210;2023-12-07T08:39:18;36.53;;;18.23;;
2966;SDS011;1493;51.496;7.210;2023-12-07T08:41:45;28.83;;;15.93;;
2966;SDS011;1493;51.496;7.210;2023-12-07T08:44:12;34.33;;;18.97;;
2966;SDS011;1493;51.496;7.210;2023-12-07T08:46:40;28.17;;;17.80;;
2966;SDS011;1493;51.496;7.210;2023-12-07T08:49:10;35.47;;;20.93;;
2966;SDS011;1493;51.496;7.210;2023-12-07T08:51:38;29.40;;;18.00;;
2966;SDS011;1493;51.496;7.210;2023-12-07T08:54:05;30.00;;;18.80;;
2966;SDS011;1493;51.496;7.210;2023-12-07T08:56:31;31.53;;;17.87;;
2966;SDS011;1493;51.496;7.210;2023-12-07T08:58:58;32.00;;;16.83;;
2966;SDS011;1493;51.496;7.210;2023-12-07T09:01:25;38.53;;;21.13;;
2966;SDS011;1493;51.496;7.210;2023-12-07T09:03:53;34.87;;;20.93;;
2966;SDS011;1493;51.496;7.210;2023-12-07T09:06:20;29.20;;;18.00;;
2966;SDS011;1493;51.496;7.210;2023-12-07T09:08:47;35.30;;;21.57;;
2966;SDS011;1493;51.496;7.210;2023-12-07T09:11:14;28.77;;;18.03;;
2966;SDS011;1493;51.496;7.210;2023-12-07T09:13:41;33.20;;;19.20;;
2966;SDS011;1493;51.496;7.210;2023-12-07T09:16:07;26.43;;;17.17;;
2966;SDS011;1493;51.496;7.210;2023-12-07T09:18:34;29.43;;;18.63;;
2966;SDS011;1493;51.496;7.210;2023-12-07T09:21:03;29.63;;;18.80;;
2966;SDS011;1493;51.496;7.210;2023-12-07T09:23:30;30.07;;;17.90;;
2966;SDS011;1493;51.496;7.210;2023-12-07T09:25:57;32.93;;;19.03;;
2966;SDS011;1493;51.496;7.210;2023-12-07T09:28:24;26.53;;;16.70;;
2966;SDS011;1493;51.496;7.210;2023-12-07T09:30:51;27.07;;;17.80;;
2966;SDS011;1493;51.496;7.210;2023-12-07T09:33:20;27.30;;;17.63;;
2966;SDS011;1493;51.496;7.210;2023-12-07T09:35:49;29.10;;;16.90;;
2966;SDS011;1493;51.496;7.210;2023-12-07T09:38:19;29.70;;;17.50;;
2966;SDS011;1493;51.496;7.210;2023-12-07T09:40:52;22.93;;;14.30;;
2966;SDS011;1493;51.496;7.210;2023-12-07T09:43:23;23.20;;;14.30;;
2966;SDS011;1493;51.496;7.210;2023-12-07T09:45:50;21.87;;;16.47;;
2966;SDS011;1493;51.496;7.210;2023-12-07T09:48:21;22.07;;;15.30;;
2966;SDS011;1493;51.496;7.210;2023-12-07T09:50:49;21.70;;;15.50;;
2966;SDS011;1493;51.496;7.210;2023-12-07T09:53:16;22.23;;;15.10;;
2966;SDS011;1493;51.496;7.210;2023-12-07T09:55:46;21.10;;;12.97;;
2966;SDS011;1493;51.496;7.210;2023-12-07T09:58:12;21.90;;;14.77;;
2966;SDS011;1493;51.496;7.210;2023-12-07T10:00:39;16.27;;;12.33;;
2966;SDS011;1493;51.496;7.210;2023-12-07T10:03:06;20.57;;;13.63;;
2966;SDS011;1493;51.496;7.210;2023-12-07T10:05:34;18.60;;;12.07;;
2966;SDS011;1493;51.496;7.210;2023-12-07T10:08:26;18.37;;;12.50;;
2966;SDS011;1493;51.496;7.210;2023-12-07T10:11:01;16.73;;;10.90;;
2966;SDS011;1493;51.496;7.210;2023-12-07T10:13:30;18.07;;;11.87;;
2966;SDS011;1493;51.496;7.210;2023-12-07T10:16:04;16.10;;;11.50;;
2966;SDS011;1493;51.496;7.210;2023-12-07T10:18:33;18.10;;;12.90;;
2966;SDS011;1493;51.496;7.210;2023-12-07T10:21:00;14.20;;;11.10;;
2966;SDS011;1493;51.496;7.210;2023-12-07T10:23:29;18.50;;;12.03;;
2966;SDS011;1493;51.496;7.210;2023-12-07T10:25:57;17.10;;;11.47;;
2966;SDS011;1493;51.496;7.210;2023-12-07T10:28:25;17.10;;;11.60;;
2966;SDS011;1493;51.496;7.210;2023-12-07T10:30:52;16.83;;;11.70;;
2966;SDS011;1493;51.496;7.210;2023-12-07T10:33:19;15.97;;;11.07;;
2966;SDS011;1493;51.496;7.210;2023-12-07T10:35:46;18.10;;;11.70;;
2966;SDS011;1493;51.496;7.210;2023-12-07T10:38:14;22.37;;;11.27;;
2966;SDS011;1493;51.496;7.210;2023-12-07T10:40:42;18.67;;;11.90;;
2966;SDS011;1493;51.496;7.210;2023-12-07T10:43:09;15.83;;;11.13;;
2966;SDS011;1493;51.496;7.210;2023-12-07T10:45:38;14.97;;;10.20;;
2966;SDS011;1493;51.496;7.210;2023-12-07T10:48:08;17.10;;;9.90;;
2966;SDS011;1493;51.496;7.210;2023-12-07T10:50:36;14.17;;;9.60;;
2966;SDS011;1493;51.496;7.210;2023-12-07T10:53:08;15.40;;;9.80;;
2966;SDS011;1493;51.496;7.210;2023-12-07T10:55:38;15.80;;;9.50;;
2966;SDS011;1493;51.496;7.210;2023-12-07T10:58:12;14.77;;;10.27;;
2966;SDS011;1493;51.496;7.210;2023-12-07T11:00:41;11.60;;;8.40;;
2966;SDS011;1493;51.496;7.210;2023-12-07T11:03:11;12.40;;;9.60;;
2966;SDS011;1493;51.496;7.210;2023-12-07T11:05:42;12.17;;;9.60;;
2966;SDS011;1493;51.496;7.210;2023-12-07T11:08:11;14.63;;;9.33;;
2966;SDS011;1493;51.496;7.210;2023-12-07T11:10:48;15.60;;;8.90;;
2966;SDS011;1493;51.496;7.210;2023-12-07T11:13:25;10.83;;;8.67;;
2966;SDS011;1493;51.496;7.210;2023-12-07T11:15:55;11.37;;;8.07;;
2966;SDS011;1493;51.496;7.210;2023-12-07T11:18:24;12.10;;;9.40;;
2966;SDS011;1493;51.496;7.210;2023-12-07T11:20:51;10.57;;;8.17;;
2966;SDS011;1493;51.496;7.210;2023-12-07T11:23:20;9.00;;;6.93;;
2966;SDS011;1493;51.496;7.210;2023-12-07T11:25:49;10.97;;;7.90;;
2966;SDS011;1493;51.496;7.210;2023-12-07T11:28:34;9.37;;;7.70;;
2966;SDS011;1493;51.496;7.210;2023-12-07T11:31:02;11.53;;;7.53;;
2966;SDS011;1493;51.496;7.210;2023-12-07T11:33:29;9.50;;;7.00;;
2966;SDS011;1493;51.496;7.210;2023-12-07T11:36:03;10.57;;;7.63;;
2966;SDS011;1493;51.496;7.210;2023-12-07T11:38:31;9.47;;;6.80;;
2966;SDS011;1493;51.496;7.210;2023-12-07T11:40:59;9.13;;;6.90;;
2966;SDS011;1493;51.496;7.210;2023-12-07T11:43:36;10.40;;;7.20;;
2966;SDS011;1493;51.496;7.210;2023-12-07T11:49:21;10.63;;;6.37;;
2966;SDS011;1493;51.496;7.210;2023-12-07T11:51:48;8.47;;;6.93;;
2966;SDS011;1493;51.496;7.210;2023-12-07T11:54:15;7.93;;;6.33;;
2966;SDS011;1493;51.496;7.210;2023-12-07T11:56:43;7.60;;;6.50;;
2966;SDS011;1493;51.496;7.210;2023-12-07T11:59:10;7.17;;;6.43;;
2966;SDS011;1493;51.496;7.210;2023-12-07T12:01:37;9.13;;;6.87;;
2966;SDS011;1493;51.496;7.210;2023-12-07T12:04:05;9.03;;;7.03;;
2966;SDS011;1493;51.496;7.210;2023-12-07T12:06:34;7.40;;;6.33;;
2966;SDS011;1493;51.496;7.210;2023-12-07T12:09:00;8.17;;;6.83;;
2966;SDS011;1493;51.496;7.210;2023-12-07T12:11:27;9.17;;;7.87;;
2966;SDS011;1493;51.496;7.210;2023-12-07T12:13:57;8.93;;;7.33;;
2966;SDS011;1493;51.496;7.210;2023-12-07T12:16:24;9.53;;;6.80;;
2966;SDS011;1493;51.496;7.210;2023-12-07T12:18:51;10.63;;;7.27;;
2966;SDS011;1493;51.496;7.210;2023-12-07T12:21:17;10.10;;;6.93;;
2966;SDS011;1493;51.496;7.210;2023-12-07T12:23:46;9.13;;;7.10;;
2966;SDS011;1493;51.496;7.210;2023-12-07T12:26:13;7.17;;;6.17;;
2966;SDS011;1493;51.496;7.210;2023-12-07T12:28:40;10.37;;;7.47;;
2966;SDS011;1493;51.496;7.210;2023-12-07T12:31:10;12.53;;;8.20;;
2966;SDS011;1493;51.496;7.210;2023-12-07T12:33:37;9.10;;;6.90;;
2966;SDS011;1493;51.496;7.210;2023-12-07T12:36:04;10.10;;;6.40;;
2966;SDS011;1493;51.496;7.210;2023-12-07T12:38:33;9.27;;;6.60;;
2966;SDS011;1493;51.496;7.210;2023-12-07T12:40:59;11.97;;;8.23;;
2966;SDS011;1493;51.496;7.210;2023-12-07T12:43:28;10.90;;;7.10;;
2966;SDS011;1493;51.496;7.210;2023-12-07T12:45:57;9.43;;;7.53;;
2966;SDS011;1493;51.496;7.210;2023-12-07T12:48:25;10.27;;;7.67;;
2966;SDS011;1493;51.496;7.210;2023-12-07T12:50:52;13.77;;;7.70;;
2966;SDS011;1493;51.496;7.210;2023-12-07T12:53:21;12.73;;;8.97;;
2966;SDS011;1493;51.496;7.210;2023-12-07T12:55:48;10.03;;;8.00;;
2966;SDS011;1493;51.496;7.210;2023-12-07T12:58:15;12.20;;;8.63;;
2966;SDS011;1493;51.496;7.210;2023-12-07T13:00:42;9.97;;;8.13;;
2966;SDS011;1493;51.496;7.210;2023-12-07T13:03:09;11.37;;;7.77;;
2966;SDS011;1493;51.496;7.210;2023-12-07T13:05:39;11.10;;;7.93;;
2966;SDS011;1493;51.496;7.210;2023-12-07T13:08:06;12.47;;;7.40;;
2966;SDS011;1493;51.496;7.210;2023-12-07T13:10:34;11.50;;;7.73;;
2966;SDS011;1493;51.496;7.210;2023-12-07T13:13:01;9.27;;;7.53;;
2966;SDS011;1493;51.496;7.210;2023-12-07T13:15:28;8.60;;;6.77;;
2966;SDS011;1493;51.496;7.210;2023-12-07T13:17:55;9.10;;;6.73;;
2966;SDS011;1493;51.496;7.210;2023-12-07T13:20:22;11.57;;;7.70;;
2966;SDS011;1493;51.496;7.210;2023-12-07T13:22:50;11.37;;;7.67;;
2966;SDS011;1493;51.496;7.210;2023-12-07T13:25:17;8.53;;;7.43;;
2966;SDS011;1493;51.496;7.210;2023-12-07T13:27:44;12.17;;;8.03;;
2966;SDS011;1493;51.496;7.210;2023-12-07T13:30:11;10.73;;;7.23;;
2966;SDS011;1493;51.496;7.210;2023-12-07T13:32:38;8.30;;;6.60;;
2966;SDS011;1493;51.496;7.210;2023-12-07T13:35:06;10.53;;;7.10;;
2966;SDS011;1493;51.496;7.210;2023-12-07T13:37:34;10.83;;;7.37;;
2966;SDS011;1493;51.496;7.210;2023-12-07T13:40:02;8.47;;;6.33;;
2966;SDS011;1493;51.496;7.210;2023-12-07T13:42:35;10.97;;;6.13;;
2966;SDS011;1493;51.496;7.210;2023-12-07T13:45:02;12.93;;;8.07;;
2966;SDS011;1493;51.496;7.210;2023-12-07T13:47:30;9.83;;;6.67;;
2966;SDS011;1493;51.496;7.210;2023-12-07T13:49:57;7.63;;;5.97;;
2966;SDS011;1493;51.496;7.210;2023-12-07T13:52:25;10.20;;;6.60;;
2966;SDS011;1493;51.496;7.210;2023-12-07T13:54:53;7.63;;;5.90;;
2966;SDS011;1493;51.496;7.210;2023-12-07T13:57:22;8.40;;;5.93;;
2966;SDS011;1493;51.496;7.210;2023-12-07T13:59:50;8.13;;;6.57;;
2966;SDS011;1493;51.496;7.210;2023-12-07T14:02:17;9.43;;;6.43;;
2966;SDS011;1493;51.496;7.210;2023-12-07T14:04:46;9.40;;;7.30;;
2966;SDS011;1493;51.496;7.210;2023-12-07T14:07:14;10.80;;;7.47;;
2966;SDS011;1493;51.496;7.210;2023-12-07T14:09:43;9.83;;;6.57;;
2966;SDS011;1493;51.496;7.210;2023-12-07T14:12:15;9.97;;;6.87;;
2966;SDS011;1493;51.496;7.210;2023-12-07T14:14:45;8.83;;;7.07;;
2966;SDS011;1493;51.496;7.210;2023-12-07T14:17:13;8.93;;;7.10;;
2966;SDS011;1493;51.496;7.210;2023-12-07T14:19:40;7.90;;;6.80;;
2966;SDS011;1493;51.496;7.210;2023-12-07T14:22:07;9.20;;;7.00;;
2966;SDS011;1493;51.496;7.210;2023-12-07T14:24:36;9.13;;;6.70;;
2966;SDS011;1493;51.496;7.210;2023-12-07T14:27:04;10.60;;;7.47;;
2966;SDS011;1493;51.496;7.210;2023-12-07T14:29:31;10.70;;;6.53;;
2966;SDS011;1493;51.496;7.210;2023-12-07T14:32:00;9.03;;;6.63;;
2966;SDS011;1493;51.496;7.210;2023-12-07T14:34:26;9.93;;;7.10;;
2966;SDS011;1493;51.496;7.210;2023-12-07T14:36:54;11.30;;;8.00;;
2966;SDS011;1493;51.496;7.210;2023-12-07T14:39:21;11.07;;;7.90;;
2966;SDS011;1493;51.496;7.210;2023-12-07T14:41:48;10.37;;;7.73;;
2966;SDS011;1493;51.496;7.210;2023-12-07T14:44:16;10.03;;;7.33;;
2966;SDS011;1493;51.496;7.210;2023-12-07T14:46:44;11.40;;;7.27;;
2966;SDS011;1493;51.496;7.210;2023-12-07T14:49:18;11.10;;;7.07;;
2966;SDS011;1493;51.496;7.210;2023-12-07T14:51:46;11.80;;;6.93;;
2966;SDS011;1493;51.496;7.210;2023-12-07T14:54:13;8.30;;;6.60;;
2966;SDS011;1493;51.496;7.210;2023-12-07T14:56:40;9.83;;;7.10;;
2966;SDS011;1493;51.496;7.210;2023-12-07T14:59:07;7.67;;;6.10;;
2966;SDS011;1493;51.496;7.210;2023-12-07T15:01:35;8.67;;;7.13;;